< Typhoon 202116 2021 Season Typhoon 202118 >
Typhoon 202117 (LIONROCK)
General InformationDetailed Track InformationTrack Information on Google MapsForecast History on Google MapsAccess Analytics MapList of All Images || NewsDisaster Info.WeblogTrackbackTyphoon FrontTwiphoonTyphoon Now!Typhoon ImaginationJMA Disaster Info. XMLResourceGoogle EarthGE AnimationAtom FeedGeoJSON
Detalied Best Track Wind (Time Zone = UTC)
Year Month Day Hour Lat. Long. Wind (kt) Gust (kt) Direc. of Major Storm Axis Radius of Major Storm Axis (nm) Radius of Minor Storm Axis (nm) Direc. of Major Gale Axis Radius of Major Gale Axis (nm) Radius of Minor Gale Axis (nm) Image
2021 10 7 00 16.4 112.3 30 45 - - - - - - Image
2021 10 7 03 16.9 112.2 30 45 - - - - - - Image
2021 10 7 06 17.2 111.6 30 45 - - - - - - Image
2021 10 7 09 17.1 111.7 30 45 - - - - - - Image
2021 10 7 12 17.3 111.4 30 45 - - - - - - Image
2021 10 7 15 17.1 111.3 30 45 - - - - - - Image
2021 10 7 18 16.9 111.4 35 50 - - - E 400 240 Image
2021 10 7 21 17.3 111.3 35 50 - - - E 400 240 Image
2021 10 8 00 17.4 110.9 35 50 - - - E 400 240 Image
2021 10 8 03 17.8 111.3 35 50 - - - E 400 240 Image
2021 10 8 06 18.0 110.9 35 50 - - - symmetric 325 325 Image
2021 10 8 09 18.7 110.8 35 50 - - - symmetric 325 325 Image
2021 10 8 12 19.1 110.8 35 50 - - - symmetric 325 325 Image
2021 10 8 15 19.3 110.6 35 50 - - - symmetric 325 325 Image
2021 10 8 18 19.5 110.6 35 50 - - - symmetric 325 325 Image
2021 10 8 21 19.5 110.4 35 50 - - - symmetric 325 325 Image
2021 10 9 00 19.7 110.1 35 50 - - - symmetric 325 325 Image
2021 10 9 03 19.7 110.0 35 50 - - - E 325 270 Image
2021 10 9 06 20.0 109.9 35 50 - - - E 325 270 Image
2021 10 9 09 20.1 109.8 35 50 - - - E 325 270 Image
2021 10 9 12 20.3 109.6 35 50 - - - E 325 270 Image
2021 10 9 15 20.4 109.4 35 50 - - - E 325 270 Image
2021 10 9 18 20.5 108.8 35 50 - - - E 325 240 Image
2021 10 9 21 20.5 108.4 35 50 - - - E 325 240 Image
2021 10 10 00 20.9 107.9 35 50 - - - E 270 150 Image
2021 10 10 03 20.9 107.3 35 50 - - - E 270 150 Image
2021 10 10 06 21.0 107.0 0 0 - - - - - - Image
Japan Meteorological Agency Best Track Data | Correction Date : 2021-10-10
< Typhoon 202116 2021 Season Typhoon 202118 >

Help